Time;durP1;ratioP1;P1;durP2;ratioP2;P2;SDS_P1;SDS_P2;PMS_P1;PMS_P2;Temp;Humidity;BMP_temperature;BMP_pressure;BME280_temperature;BME280_humidity;BME280_pressure;Samples;Min_cycle;Max_cycle;Signal;HPM_P1;HPM_P2
2020/12/07 06:02:40;;;;;;;26.67;15.93;;;;;;;;;;5086304;28;20496;-50
2020/12/07 06:05:08;;;;;;;21.05;15.48;;;;;;;;;;5063976;28;20059;-50
2020/12/07 06:07:35;;;;;;;20.48;14.20;;;;;;;;;;5056303;28;20040;-52
2020/12/07 06:10:03;;;;;;;24.48;14.60;;;;;;;;;;5056475;28;20393;-51
2020/12/07 06:12:36;;;;;;;24.33;14.30;;;;;;;;;;5062280;28;20037;-51
2020/12/07 06:15:03;;;;;;;23.15;15.48;;;;;;;;;;5067651;28;20509;-51
2020/12/07 06:17:32;;;;;;;22.88;14.77;;;;;;;;;;5052024;28;20427;-53
2020/12/07 06:19:59;;;;;;;24.42;16.13;;;;;;;;;;5052971;28;20029;-51
2020/12/07 06:22:25;;;;;;;23.25;14.98;;;;;;;;;;5056417;28;20128;-51
2020/12/07 06:24:53;;;;;;;21.05;13.55;;;;;;;;;;5056520;28;20457;-51
2020/12/07 06:27:19;;;;;;;28.88;16.27;;;;;;;;;;5056553;28;20039;-50
2020/12/07 06:30:03;;;;;;;24.63;15.55;;;;;;;;;;5053028;28;20029;-53
2020/12/07 06:32:48;;;;;;;23.35;14.50;;;;;;;;;;5051137;28;20465;-51
2020/12/07 06:35:15;;;;;;;24.57;15.00;;;;;;;;;;5063711;28;20505;-51
2020/12/07 06:37:44;;;;;;;24.30;15.77;;;;;;;;;;5068261;28;20028;-54
2020/12/07 06:40:11;;;;;;;24.35;15.18;;;;;;;;;;5059089;28;20040;-52
2020/12/07 06:42:41;;;;;;;22.30;14.25;;;;;;;;;;5060066;28;20032;-54
2020/12/07 06:45:09;;;;;;;25.40;15.88;;;;;;;;;;5067084;28;20385;-50
2020/12/07 06:47:35;;;;;;;27.15;15.43;;;;;;;;;;5051334;28;20489;-54
2020/12/07 06:50:13;;;;;;;25.92;15.20;;;;;;;;;;5051640;28;20037;-52
2020/12/07 06:52:41;;;;;;;27.38;16.60;;;;;;;;;;5055831;28;20406;-51
2020/12/07 06:55:12;;;;;;;27.30;16.27;;;;;;;;;;5055480;28;20112;-51
2020/12/07 06:57:44;;;;;;;23.27;14.93;;;;;;;;;;5055884;28;20025;-50
2020/12/07 07:00:18;;;;;;;26.25;15.57;;;;;;;;;;5053434;28;20098;-54
2020/12/07 07:02:48;;;;;;;22.80;14.80;;;;;;;;;;5053329;28;20033;-51
2020/12/07 07:05:15;;;;;;;23.80;15.88;;;;;;;;;;5051223;28;20043;-51
2020/12/07 07:07:42;;;;;;;23.85;14.48;;;;;;;;;;5049959;28;20035;-51
2020/12/07 07:10:09;;;;;;;22.90;14.18;;;;;;;;;;5049599;28;20032;-60
2020/12/07 07:12:36;;;;;;;20.70;13.98;;;;;;;;;;5048273;28;20063;-52
2020/12/07 07:15:03;;;;;;;21.13;13.30;;;;;;;;;;5051611;28;20065;-51
2020/12/07 07:17:30;;;;;;;20.95;14.15;;;;;;;;;;5051561;28;20394;-51
2020/12/07 07:19:57;;;;;;;19.75;12.45;;;;;;;;;;5053282;28;20033;-51
2020/12/07 07:22:24;;;;;;;18.60;13.23;;;;;;;;;;5051714;28;20480;-51
2020/12/07 07:24:56;;;;;;;20.33;12.82;;;;;;;;;;5046171;28;20025;-52
2020/12/07 07:30:08;;;;;;;21.02;12.73;;;;;;;;;;5040338;28;20025;-53
2020/12/07 07:32:34;;;;;;;24.85;14.02;;;;;;;;;;5040801;28;20113;-55
2020/12/07 07:35:00;;;;;;;23.77;13.80;;;;;;;;;;5043020;28;20033;-51
2020/12/07 07:37:26;;;;;;;19.75;13.45;;;;;;;;;;5052241;28;20023;-54
2020/12/07 07:40:00;;;;;;;23.40;14.02;;;;;;;;;;5051812;28;20123;-51
2020/12/07 07:42:27;;;;;;;20.25;13.00;;;;;;;;;;5050964;28;20064;-52
2020/12/07 07:44:54;;;;;;;26.63;14.57;;;;;;;;;;5041309;28;20072;-52
2020/12/07 07:47:33;;;;;;;22.52;14.57;;;;;;;;;;5045769;28;20025;-56
2020/12/07 08:17:58;;;;;;;20.52;13.73;;;;;;;;;;5047981;28;20040;-51
2020/12/07 08:20:27;;;;;;;22.67;14.85;;;;;;;;;;5050615;28;20029;-53
2020/12/07 08:23:04;;;;;;;21.58;13.75;;;;;;;;;;5050188;28;20162;-50
2020/12/07 08:25:40;;;;;;;22.85;15.25;;;;;;;;;;5050352;28;20152;-51
2020/12/07 08:28:22;;;;;;;20.88;14.13;;;;;;;;;;5049820;28;20079;-51
2020/12/07 08:31:01;;;;;;;25.48;14.43;;;;;;;;;;5049261;28;20545;-52
2020/12/07 08:33:28;;;;;;;22.88;14.07;;;;;;;;;;5049069;28;20025;-54
2020/12/07 08:35:57;;;;;;;24.42;14.85;;;;;;;;;;5049075;28;20025;-51
2020/12/07 08:38:31;;;;;;;23.52;14.07;;;;;;;;;;5049148;28;20017;-50
2020/12/07 08:41:04;;;;;;;25.90;13.65;;;;;;;;;;5046342;28;20032;-51
2020/12/07 08:43:30;;;;;;;19.73;13.85;;;;;;;;;;5050129;28;20060;-50
2020/12/07 08:45:56;;;;;;;19.58;12.90;;;;;;;;;;5047586;28;20043;-54
2020/12/07 08:48:22;;;;;;;19.90;12.82;;;;;;;;;;5048622;28;20047;-51
2020/12/07 08:50:48;;;;;;;22.35;13.07;;;;;;;;;;5047536;28;20554;-51
2020/12/07 08:53:15;;;;;;;23.35;12.48;;;;;;;;;;5048512;28;20025;-50
2020/12/07 08:55:41;;;;;;;24.63;14.02;;;;;;;;;;5049603;28;20429;-50
2020/12/07 08:58:07;;;;;;;22.30;12.70;;;;;;;;;;5048731;28;20438;-54
2020/12/07 09:00:33;;;;;;;19.75;13.30;;;;;;;;;;5050147;28;20136;-51
2020/12/07 09:03:00;;;;;;;21.08;13.50;;;;;;;;;;5049645;28;20482;-51
2020/12/07 09:05:26;;;;;;;22.83;13.68;;;;;;;;;;5047743;28;20470;-53
2020/12/07 09:07:52;;;;;;;21.30;12.82;;;;;;;;;;5048006;28;20417;-51
2020/12/07 09:10:18;;;;;;;20.50;13.45;;;;;;;;;;5048679;28;20048;-50
2020/12/07 09:12:44;;;;;;;23.42;14.60;;;;;;;;;;5048880;28;20028;-53
2020/12/07 09:15:10;;;;;;;19.23;12.55;;;;;;;;;;5049517;28;20443;-53
2020/12/07 09:17:36;;;;;;;19.67;12.35;;;;;;;;;;5046707;28;20037;-55
2020/12/07 09:20:02;;;;;;;21.77;12.80;;;;;;;;;;5047265;28;20021;-50
2020/12/07 09:22:29;;;;;;;23.63;13.23;;;;;;;;;;5047238;28;20367;-53
2020/12/07 09:24:56;;;;;;;21.35;13.23;;;;;;;;;;5049114;28;20391;-51
2020/12/07 09:27:22;;;;;;;23.48;13.32;;;;;;;;;;5048241;28;20044;-56
2020/12/07 09:29:48;;;;;;;24.75;14.27;;;;;;;;;;5048696;28;20398;-51
2020/12/07 09:32:14;;;;;;;20.45;13.32;;;;;;;;;;5048610;28;20017;-51
2020/12/07 09:34:40;;;;;;;21.67;13.60;;;;;;;;;;5048726;28;20021;-51
2020/12/07 09:37:06;;;;;;;20.65;12.73;;;;;;;;;;5047606;28;20126;-53
2020/12/07 09:39:32;;;;;;;22.83;13.52;;;;;;;;;;5048456;28;20017;-51
2020/12/07 09:41:59;;;;;;;18.90;12.45;;;;;;;;;;5047226;28;20033;-52
2020/12/07 09:44:25;;;;;;;23.88;13.32;;;;;;;;;;5047109;28;20059;-55
2020/12/07 09:46:52;;;;;;;16.80;12.05;;;;;;;;;;5048809;28;20158;-51
2020/12/07 09:49:20;;;;;;;21.67;13.20;;;;;;;;;;5048731;28;20367;-52
2020/12/07 09:51:46;;;;;;;22.67;11.68;;;;;;;;;;5048570;28;20029;-53
2020/12/07 09:54:12;;;;;;;18.75;12.38;;;;;;;;;;5049026;28;20474;-50
2020/12/07 09:56:38;;;;;;;24.48;11.52;;;;;;;;;;5048522;28;20036;-51
2020/12/07 09:59:04;;;;;;;18.88;11.75;;;;;;;;;;5047986;28;20017;-51
2020/12/07 10:01:30;;;;;;;17.88;12.05;;;;;;;;;;5047547;28;20053;-55
2020/12/07 10:03:56;;;;;;;20.55;12.95;;;;;;;;;;5048462;28;20122;-52
2020/12/07 10:06:23;;;;;;;16.50;12.90;;;;;;;;;;5048866;28;20036;-52
2020/12/07 10:08:49;;;;;;;16.45;11.98;;;;;;;;;;5048140;28;20032;-50
2020/12/07 10:11:15;;;;;;;20.17;12.10;;;;;;;;;;5043875;28;20112;-51
2020/12/07 10:13:41;;;;;;;19.52;12.23;;;;;;;;;;5044067;28;20032;-51
2020/12/07 10:16:08;;;;;;;20.77;12.95;;;;;;;;;;5033679;28;20391;-52
2020/12/07 10:18:34;;;;;;;22.30;13.25;;;;;;;;;;5034967;28;20465;-53
2020/12/07 10:21:00;;;;;;;18.13;13.32;;;;;;;;;;5048439;28;20037;-54
2020/12/07 10:23:26;;;;;;;18.83;12.80;;;;;;;;;;5049224;28;20131;-54
2020/12/07 10:25:52;;;;;;;20.48;11.65;;;;;;;;;;5047862;28;20374;-51
2020/12/07 10:28:19;;;;;;;18.05;11.73;;;;;;;;;;5034608;28;20091;-51
2020/12/07 10:30:45;;;;;;;47.75;33.17;;;;;;;;;;5048431;28;20051;-60
2020/12/07 10:33:11;;;;;;;20.17;13.00;;;;;;;;;;5047978;28;20033;-54
2020/12/07 10:35:37;;;;;;;19.98;13.68;;;;;;;;;;5049513;28;20033;-51
2020/12/07 10:38:04;;;;;;;25.45;14.57;;;;;;;;;;5051063;28;20024;-52
2020/12/07 10:40:30;;;;;;;23.58;16.73;;;;;;;;;;5052386;28;20099;-52
2020/12/07 10:42:57;;;;;;;16.95;11.50;;;;;;;;;;5052591;28;20032;-50
2020/12/07 10:45:23;;;;;;;17.52;12.52;;;;;;;;;;5051561;28;20052;-52
2020/12/07 10:47:52;;;;;;;19.45;11.73;;;;;;;;;;5049751;28;20468;-54
2020/12/07 10:50:19;;;;;;;20.10;11.80;;;;;;;;;;5052477;28;20078;-51
2020/12/07 10:52:45;;;;;;;18.40;11.23;;;;;;;;;;5050021;28;20681;-55
2020/12/07 10:55:11;;;;;;;20.30;11.57;;;;;;;;;;5050472;28;20043;-57
2020/12/07 10:57:37;;;;;;;20.17;10.85;;;;;;;;;;5052065;28;20465;-58
2020/12/07 11:00:06;;;;;;;19.83;14.68;;;;;;;;;;5051888;28;20041;-51
2020/12/07 11:02:32;;;;;;;22.15;17.08;;;;;;;;;;5050377;28;20045;-58
2020/12/07 11:04:58;;;;;;;19.77;13.25;;;;;;;;;;5050919;28;20552;-64
2020/12/07 11:07:26;;;;;;;20.33;13.60;;;;;;;;;;5051632;28;20033;-57
2020/12/07 11:09:52;;;;;;;22.77;13.93;;;;;;;;;;5051528;28;20025;-56
2020/12/07 11:12:22;;;;;;;19.45;12.68;;;;;;;;;;5050860;28;20017;-57
2020/12/07 11:14:48;;;;;;;18.88;14.93;;;;;;;;;;5051242;28;20414;-53
2020/12/07 11:17:14;;;;;;;17.02;11.40;;;;;;;;;;5051513;28;20025;-52
2020/12/07 11:19:44;;;;;;;18.38;11.68;;;;;;;;;;5051882;28;20047;-52
2020/12/07 11:22:11;;;;;;;15.23;9.85;;;;;;;;;;5049628;28;20045;-54
2020/12/07 11:24:37;;;;;;;14.45;9.40;;;;;;;;;;5048703;28;20021;-54
2020/12/07 11:27:03;;;;;;;15.45;10.60;;;;;;;;;;5049069;28;20048;-52
2020/12/07 11:29:29;;;;;;;12.95;9.23;;;;;;;;;;5049992;28;20021;-53
2020/12/07 11:31:56;;;;;;;20.52;9.45;;;;;;;;;;5049829;28;20029;-57
2020/12/07 11:34:22;;;;;;;13.20;10.07;;;;;;;;;;5051448;28;20021;-52
2020/12/07 11:36:51;;;;;;;18.08;9.55;;;;;;;;;;5049411;28;20033;-50
2020/12/07 11:44:20;;;;;;;16.38;11.13;;;;;;;;;;5048933;28;20394;-52
2020/12/07 11:46:54;;;;;;;19.45;13.88;;;;;;;;;;5050914;28;20112;-53
2020/12/07 11:49:20;;;;;;;13.02;8.82;;;;;;;;;;5050689;28;20504;-52
2020/12/07 11:51:46;;;;;;;11.02;8.63;;;;;;;;;;5050937;28;20025;-55
2020/12/07 11:54:13;;;;;;;12.95;9.13;;;;;;;;;;5049313;28;20036;-52
2020/12/07 11:56:40;;;;;;;15.80;12.55;;;;;;;;;;5050145;28;20163;-53
2020/12/07 11:59:07;;;;;;;11.55;9.00;;;;;;;;;;5048465;28;20116;-51
2020/12/07 12:01:37;;;;;;;13.50;8.77;;;;;;;;;;5050079;28;20065;-53
2020/12/07 12:04:04;;;;;;;14.23;8.68;;;;;;;;;;5051285;28;20036;-54
2020/12/07 12:06:31;;;;;;;13.85;8.00;;;;;;;;;;5048054;28;20036;-52
2020/12/07 12:08:58;;;;;;;18.48;9.23;;;;;;;;;;5050289;28;20024;-57
2020/12/07 12:11:34;;;;;;;11.27;7.55;;;;;;;;;;5046376;28;20025;-51
2020/12/07 12:14:01;;;;;;;12.05;8.73;;;;;;;;;;5047955;28;20040;-54
2020/12/07 12:16:27;;;;;;;10.98;7.93;;;;;;;;;;5050831;28;20544;-56
2020/12/07 12:18:57;;;;;;;14.23;9.63;;;;;;;;;;5048220;28;20043;-54
2020/12/07 12:21:26;;;;;;;15.60;8.13;;;;;;;;;;5047673;28;20580;-55
2020/12/07 12:23:52;;;;;;;12.68;8.13;;;;;;;;;;5048667;28;20017;-52
2020/12/07 12:26:20;;;;;;;15.18;9.00;;;;;;;;;;5049790;28;20032;-51
2020/12/07 12:28:46;;;;;;;9.75;6.72;;;;;;;;;;5050451;28;20078;-54
2020/12/07 12:31:13;;;;;;;11.77;7.47;;;;;;;;;;5050409;28;20143;-52
2020/12/07 12:33:41;;;;;;;9.38;6.97;;;;;;;;;;5051340;28;20116;-54
2020/12/07 12:36:08;;;;;;;14.45;6.90;;;;;;;;;;5050507;28;20525;-51
2020/12/07 12:38:34;;;;;;;11.60;6.82;;;;;;;;;;5050118;28;20490;-51
2020/12/07 12:41:00;;;;;;;11.35;6.95;;;;;;;;;;5050226;28;20108;-54
2020/12/07 12:43:27;;;;;;;10.60;6.85;;;;;;;;;;5050209;28;20036;-55
2020/12/07 12:45:53;;;;;;;10.90;6.40;;;;;;;;;;5050449;28;20017;-57
2020/12/07 12:48:19;;;;;;;10.35;6.43;;;;;;;;;;5050948;28;20439;-51
2020/12/07 12:50:45;;;;;;;11.98;7.13;;;;;;;;;;5050060;28;20021;-53
2020/12/07 12:53:11;;;;;;;11.35;6.53;;;;;;;;;;5049518;28;20027;-58
2020/12/07 12:55:37;;;;;;;10.60;6.10;;;;;;;;;;5049740;28;20017;-59
2020/12/07 12:58:03;;;;;;;9.43;5.70;;;;;;;;;;5049559;28;20041;-59
2020/12/07 13:00:31;;;;;;;15.48;6.60;;;;;;;;;;5048633;28;20029;-67
2020/12/07 13:02:57;;;;;;;8.30;5.75;;;;;;;;;;5048658;28;20021;-50
2020/12/07 13:05:24;;;;;;;12.23;6.65;;;;;;;;;;5048333;28;20188;-72
2020/12/07 13:07:50;;;;;;;9.68;6.25;;;;;;;;;;5046988;28;20044;-60
2020/12/07 13:10:16;;;;;;;11.25;6.60;;;;;;;;;;5048831;28;20021;-60
2020/12/07 13:12:42;;;;;;;10.88;7.00;;;;;;;;;;5047169;28;20025;-61
2020/12/07 13:15:08;;;;;;;12.60;7.72;;;;;;;;;;5046797;28;20052;-64
2020/12/07 13:17:37;;;;;;;8.45;6.68;;;;;;;;;;5045715;28;20535;-61
2020/12/07 13:20:06;;;;;;;10.25;6.78;;;;;;;;;;5052429;28;20025;-62
2020/12/07 13:22:48;;;;;;;13.85;6.78;;;;;;;;;;5050798;28;20028;-61
2020/12/07 13:25:22;;;;;;;12.30;6.38;;;;;;;;;;5049987;28;20059;-61
2020/12/07 13:27:58;;;;;;;11.13;6.65;;;;;;;;;;5049165;28;20412;-61
2020/12/07 13:30:26;;;;;;;13.45;6.53;;;;;;;;;;5048912;28;20037;-60
2020/12/07 13:32:52;;;;;;;12.27;6.13;;;;;;;;;;5047633;28;20021;-61
2020/12/07 13:35:18;;;;;;;10.95;7.20;;;;;;;;;;5046826;28;20038;-62
2020/12/07 13:37:44;;;;;;;9.35;5.88;;;;;;;;;;5048401;28;20021;-65
2020/12/07 13:40:11;;;;;;;10.18;6.50;;;;;;;;;;5049028;28;20083;-53
2020/12/07 13:42:37;;;;;;;9.38;6.88;;;;;;;;;;5047743;28;20017;-53
2020/12/07 13:45:03;;;;;;;11.77;7.10;;;;;;;;;;5048924;28;20124;-51
2020/12/07 13:47:29;;;;;;;10.38;6.88;;;;;;;;;;5049118;28;20044;-54
2020/12/07 13:49:55;;;;;;;11.00;6.97;;;;;;;;;;5049437;28;20017;-54
2020/12/07 13:52:21;;;;;;;10.02;6.63;;;;;;;;;;5047199;28;20040;-52
2020/12/07 13:54:47;;;;;;;12.48;7.00;;;;;;;;;;5048011;28;20032;-53
2020/12/07 13:57:14;;;;;;;13.68;6.85;;;;;;;;;;5048788;28;20067;-53
2020/12/07 13:59:40;;;;;;;12.82;7.05;;;;;;;;;;5047674;28;20055;-52
2020/12/07 14:02:06;;;;;;;14.95;9.85;;;;;;;;;;5047981;28;20517;-62
2020/12/07 14:05:06;;;;;;;10.15;7.70;;;;;;;;;;5049437;28;20066;-52
2020/12/07 14:07:26;;;;;;;12.55;6.95;;;;;;;;;;5046272;28;20064;-55
2020/12/07 14:09:53;;;;;;;10.82;6.72;;;;;;;;;;5047465;28;20409;-52
2020/12/07 14:12:19;;;;;;;24.77;18.35;;;;;;;;;;5048400;28;20512;-52
2020/12/07 14:14:45;;;;;;;11.98;7.63;;;;;;;;;;5052142;28;20055;-53
2020/12/07 14:17:13;;;;;;;10.05;7.03;;;;;;;;;;5051217;28;20021;-51
2020/12/07 14:24:52;;;;;;;9.25;6.75;;;;;;;;;;5050436;28;20025;-60
2020/12/07 14:40:23;;;;;;;12.40;7.88;;;;;;;;;;5052539;28;20058;-63
2020/12/07 14:42:50;;;;;;;13.75;7.07;;;;;;;;;;5052424;28;20095;-61
2020/12/07 14:45:26;;;;;;;13.50;8.57;;;;;;;;;;5052721;28;20036;-61
2020/12/07 14:47:58;;;;;;;11.18;8.35;;;;;;;;;;5049723;28;20450;-62
2020/12/07 14:52:55;;;;;;;11.25;7.47;;;;;;;;;;5051707;28;20421;-59
2020/12/07 14:55:36;;;;;;;13.88;9.00;;;;;;;;;;5050428;28;20075;-60
2020/12/07 15:06:00;;;;;;;13.18;8.07;;;;;;;;;;5050973;28;20048;-60
2020/12/07 15:13:52;;;;;;;17.50;10.43;;;;;;;;;;5050459;28;20029;-60
2020/12/07 15:16:19;;;;;;;17.10;8.70;;;;;;;;;;5051222;28;20025;-61
2020/12/07 15:18:45;;;;;;;16.05;9.05;;;;;;;;;;5050481;28;20017;-59
2020/12/07 15:21:11;;;;;;;22.10;9.52;;;;;;;;;;5050699;28;20078;-69
2020/12/07 15:23:38;;;;;;;18.65;8.93;;;;;;;;;;5050690;28;20021;-53
2020/12/07 15:26:05;;;;;;;17.55;9.82;;;;;;;;;;5050131;28;20553;-66
2020/12/07 15:28:32;;;;;;;16.40;9.15;;;;;;;;;;5051963;28;20503;-53
2020/12/07 15:31:00;;;;;;;16.33;8.98;;;;;;;;;;5050215;28;20029;-58
2020/12/07 15:33:26;;;;;;;12.27;8.02;;;;;;;;;;5048610;28;20087;-54
2020/12/07 15:35:52;;;;;;;15.52;8.95;;;;;;;;;;5048834;28;20064;-65
2020/12/07 15:38:18;;;;;;;16.02;9.20;;;;;;;;;;5048608;28;20025;-63
2020/12/07 15:40:44;;;;;;;18.67;9.73;;;;;;;;;;5050907;28;20029;-62
2020/12/07 15:43:14;;;;;;;12.68;8.65;;;;;;;;;;5049882;28;20017;-64
2020/12/07 15:45:41;;;;;;;14.77;8.30;;;;;;;;;;5050781;28;20074;-67
2020/12/07 15:48:07;;;;;;;18.35;12.10;;;;;;;;;;5050854;28;20082;-60
2020/12/07 15:50:33;;;;;;;20.20;15.88;;;;;;;;;;5049388;28;20025;-55
2020/12/07 15:52:59;;;;;;;19.42;10.52;;;;;;;;;;5049860;28;20417;-53
2020/12/07 15:55:25;;;;;;;16.00;10.48;;;;;;;;;;5051394;28;20021;-53
2020/12/07 15:57:51;;;;;;;17.63;10.63;;;;;;;;;;5049772;28;20075;-51
2020/12/07 16:00:19;;;;;;;17.23;10.68;;;;;;;;;;5049348;28;20037;-58
2020/12/07 16:02:45;;;;;;;19.13;12.68;;;;;;;;;;5046032;28;20052;-56
2020/12/07 16:05:11;;;;;;;20.10;12.00;;;;;;;;;;5048161;28;20090;-58
2020/12/07 16:07:37;;;;;;;17.83;11.18;;;;;;;;;;5047247;28;20032;-56
2020/12/07 16:10:03;;;;;;;16.58;11.20;;;;;;;;;;5035943;28;20053;-65
2020/12/07 16:12:30;;;;;;;21.52;12.73;;;;;;;;;;5046794;28;20037;-52
2020/12/07 16:14:56;;;;;;;21.13;12.65;;;;;;;;;;5047978;28;20382;-56
2020/12/07 16:17:22;;;;;;;23.90;13.77;;;;;;;;;;5046754;28;20020;-53
2020/12/07 16:19:48;;;;;;;23.50;13.13;;;;;;;;;;5045750;28;20040;-63
2020/12/07 16:22:14;;;;;;;26.13;14.02;;;;;;;;;;5032992;28;20087;-51
2020/12/07 16:24:41;;;;;;;22.98;14.70;;;;;;;;;;5047467;28;20013;-50
2020/12/07 16:27:07;;;;;;;22.52;14.15;;;;;;;;;;5046660;28;20021;-56
2020/12/07 16:29:33;;;;;;;24.15;12.73;;;;;;;;;;5045814;28;20051;-57
2020/12/07 16:32:02;;;;;;;24.17;12.82;;;;;;;;;;5046842;28;20072;-52
2020/12/07 16:34:28;;;;;;;24.42;15.95;;;;;;;;;;5043777;28;20039;-63
2020/12/07 16:36:54;;;;;;;28.02;15.75;;;;;;;;;;5043841;28;20060;-53
2020/12/07 16:39:20;;;;;;;20.65;13.52;;;;;;;;;;5044803;28;20040;-60
2020/12/07 16:41:50;;;;;;;22.45;12.80;;;;;;;;;;5043240;28;20489;-51
2020/12/07 16:44:16;;;;;;;21.00;11.73;;;;;;;;;;5045249;28;20498;-54
2020/12/07 16:46:42;;;;;;;23.35;13.25;;;;;;;;;;5039762;28;20025;-54
2020/12/07 16:49:08;;;;;;;19.85;12.80;;;;;;;;;;5044693;28;20021;-53
2020/12/07 16:51:34;;;;;;;24.55;12.90;;;;;;;;;;5041526;28;20107;-58
2020/12/07 16:54:01;;;;;;;23.10;12.43;;;;;;;;;;5042328;28;20033;-54
2020/12/07 16:56:27;;;;;;;19.35;13.77;;;;;;;;;;5045195;28;20592;-53
2020/12/07 16:58:54;;;;;;;19.58;12.77;;;;;;;;;;5042849;28;20082;-57
2020/12/07 17:01:20;;;;;;;27.83;13.70;;;;;;;;;;5041880;28;20136;-55
2020/12/07 17:03:46;;;;;;;22.60;13.30;;;;;;;;;;5046906;28;20174;-53
2020/12/07 17:06:12;;;;;;;23.15;13.30;;;;;;;;;;5046400;28;20051;-57
2020/12/07 17:08:40;;;;;;;20.55;13.20;;;;;;;;;;5046699;28;20505;-53
2020/12/07 17:11:06;;;;;;;25.38;13.60;;;;;;;;;;5048367;28;20048;-51
2020/12/07 17:13:32;;;;;;;21.25;13.68;;;;;;;;;;5042042;28;20033;-54
2020/12/07 17:15:58;;;;;;;23.15;13.65;;;;;;;;;;5052291;28;20040;-58
2020/12/07 17:18:24;;;;;;;24.20;14.68;;;;;;;;;;5035697;28;20034;-54
2020/12/07 17:20:50;;;;;;;21.20;14.13;;;;;;;;;;5044851;28;20052;-54
2020/12/07 17:23:17;;;;;;;23.73;15.30;;;;;;;;;;5042575;28;20123;-51
2020/12/07 17:25:43;;;;;;;21.25;13.07;;;;;;;;;;5039984;28;20025;-54
2020/12/07 17:28:10;;;;;;;21.63;13.02;;;;;;;;;;5048292;28;20045;-55
2020/12/07 17:30:38;;;;;;;22.95;13.57;;;;;;;;;;5035717;28;20489;-52
2020/12/07 17:33:04;;;;;;;20.08;13.48;;;;;;;;;;5038820;28;20483;-52
2020/12/07 17:35:30;;;;;;;21.67;13.60;;;;;;;;;;5044938;28;20021;-53
2020/12/07 17:37:56;;;;;;;18.98;12.75;;;;;;;;;;5048328;28;20025;-54
2020/12/07 17:40:22;;;;;;;22.27;13.48;;;;;;;;;;5035720;28;20029;-53
2020/12/07 17:42:49;;;;;;;24.38;12.90;;;;;;;;;;5033646;28;20026;-53
2020/12/07 17:45:15;;;;;;;23.23;13.18;;;;;;;;;;5038471;28;20418;-51
2020/12/07 17:47:41;;;;;;;22.40;12.63;;;;;;;;;;5038248;28;20505;-53
2020/12/07 17:50:07;;;;;;;22.27;12.00;;;;;;;;;;5041564;28;20021;-55
2020/12/07 17:52:34;;;;;;;24.73;12.57;;;;;;;;;;5049464;28;20363;-56
2020/12/07 17:55:00;;;;;;;24.75;13.13;;;;;;;;;;5036636;28;20494;-56
2020/12/07 17:57:26;;;;;;;22.08;13.23;;;;;;;;;;5036519;28;20048;-53
2020/12/07 17:59:52;;;;;;;18.40;12.25;;;;;;;;;;5043237;28;20032;-56
2020/12/07 18:02:19;;;;;;;20.27;12.75;;;;;;;;;;5044817;28;20041;-55
2020/12/07 18:04:45;;;;;;;19.73;11.25;;;;;;;;;;5038475;28;20032;-59
2020/12/07 18:07:11;;;;;;;17.80;10.45;;;;;;;;;;5034215;28;20017;-52
2020/12/07 18:09:37;;;;;;;15.85;9.80;;;;;;;;;;5035124;28;20037;-53
2020/12/07 18:12:04;;;;;;;16.67;9.18;;;;;;;;;;5038613;28;20037;-51
2020/12/07 18:14:31;;;;;;;14.80;9.45;;;;;;;;;;5038608;28;20104;-57
2020/12/07 18:16:57;;;;;;;13.02;9.85;;;;;;;;;;5038269;28;20540;-55
2020/12/07 18:19:24;;;;;;;14.00;9.63;;;;;;;;;;5043144;28;20025;-55
2020/12/07 18:21:50;;;;;;;19.85;11.43;;;;;;;;;;5051163;28;20045;-55
2020/12/07 18:24:16;;;;;;;19.00;10.63;;;;;;;;;;5037894;28;20072;-52
2020/12/07 18:26:42;;;;;;;18.52;11.63;;;;;;;;;;5037846;28;20042;-54
2020/12/07 18:29:08;;;;;;;19.42;11.60;;;;;;;;;;5041278;28;20032;-53
2020/12/07 18:31:35;;;;;;;25.17;12.45;;;;;;;;;;5049565;28;20009;-53
2020/12/07 18:34:01;;;;;;;19.30;11.82;;;;;;;;;;5033315;28;20502;-51
2020/12/07 18:36:27;;;;;;;19.75;11.70;;;;;;;;;;5050166;28;20375;-52
2020/12/07 18:38:53;;;;;;;20.50;11.68;;;;;;;;;;5039956;28;20029;-53
2020/12/07 18:41:19;;;;;;;23.45;12.90;;;;;;;;;;5037896;28;20033;-52
2020/12/07 18:43:45;;;;;;;21.67;11.95;;;;;;;;;;5047737;28;20078;-57
2020/12/07 18:46:12;;;;;;;17.80;12.25;;;;;;;;;;5033092;28;20024;-54
2020/12/07 18:48:38;;;;;;;21.35;12.80;;;;;;;;;;5049345;28;20021;-52
2020/12/07 18:51:04;;;;;;;19.17;11.80;;;;;;;;;;5037494;28;20048;-58
2020/12/07 18:53:30;;;;;;;18.58;11.77;;;;;;;;;;5043481;28;20035;-52
2020/12/07 18:55:56;;;;;;;17.83;11.70;;;;;;;;;;5037247;28;20029;-55
2020/12/07 18:58:23;;;;;;;18.38;12.00;;;;;;;;;;5035277;28;20025;-55
2020/12/07 19:00:49;;;;;;;22.95;12.63;;;;;;;;;;5035976;28;20143;-52
2020/12/07 19:03:15;;;;;;;19.00;11.90;;;;;;;;;;5051455;28;20543;-53
2020/12/07 19:05:41;;;;;;;20.05;11.30;;;;;;;;;;5044584;28;20075;-55
2020/12/07 19:08:07;;;;;;;20.92;11.57;;;;;;;;;;5040461;28;20032;-51
2020/12/07 19:10:34;;;;;;;25.17;13.93;;;;;;;;;;5039347;28;20040;-54
2020/12/07 19:13:00;;;;;;;27.17;14.38;;;;;;;;;;5036212;28;20080;-53
2020/12/07 19:15:26;;;;;;;23.60;14.55;;;;;;;;;;5039634;28;20026;-55
2020/12/07 19:17:52;;;;;;;20.17;13.55;;;;;;;;;;5048364;28;20029;-54
2020/12/07 19:20:18;;;;;;;18.58;14.80;;;;;;;;;;5044130;28;20018;-54
2020/12/07 19:22:45;;;;;;;23.52;17.13;;;;;;;;;;5050364;28;20482;-65
2020/12/07 19:25:11;;;;;;;30.88;19.35;;;;;;;;;;5049649;28;20049;-60
2020/12/07 19:27:37;;;;;;;34.30;21.15;;;;;;;;;;5052219;28;20025;-55
2020/12/07 19:30:04;;;;;;;33.17;21.75;;;;;;;;;;5049466;28;20040;-57
2020/12/07 19:32:31;;;;;;;30.42;20.17;;;;;;;;;;5044354;28;20025;-54
2020/12/07 19:34:57;;;;;;;33.45;24.02;;;;;;;;;;5039384;28;20083;-54
2020/12/07 19:37:23;;;;;;;38.85;26.63;;;;;;;;;;5036720;28;20078;-55
2020/12/07 19:39:49;;;;;;;51.20;32.60;;;;;;;;;;5035231;28;20060;-53
2020/12/07 19:42:15;;;;;;;101.07;56.33;;;;;;;;;;5049370;28;20041;-51
2020/12/07 19:44:41;;;;;;;431.17;231.18;;;;;;;;;;5042950;28;20025;-71
2020/12/07 19:47:08;;;;;;;157.38;90.97;;;;;;;;;;5049395;28;20060;-56
2020/12/07 19:49:34;;;;;;;101.68;67.90;;;;;;;;;;5049651;28;20057;-52
2020/12/07 19:52:00;;;;;;;112.88;76.80;;;;;;;;;;5034165;28;20747;-56
2020/12/07 19:54:26;;;;;;;68.60;49.33;;;;;;;;;;5041309;28;20108;-54
2020/12/07 19:56:52;;;;;;;74.13;50.35;;;;;;;;;;5043463;28;20889;-54
2020/12/07 19:59:18;;;;;;;64.25;41.80;;;;;;;;;;5054713;28;20056;-53
2020/12/07 20:01:50;;;;;;;52.65;34.45;;;;;;;;;;5050578;28;20497;-54
2020/12/07 20:04:16;;;;;;;51.47;33.83;;;;;;;;;;5035765;28;20029;-54
2020/12/07 20:06:42;;;;;;;32.28;21.63;;;;;;;;;;5051953;28;20033;-52
2020/12/07 20:09:08;;;;;;;30.23;22.20;;;;;;;;;;5049679;28;20029;-54
2020/12/07 20:11:35;;;;;;;40.67;25.63;;;;;;;;;;5049454;28;20021;-53
2020/12/07 20:14:04;;;;;;;26.10;20.17;;;;;;;;;;5049853;28;20469;-60
2020/12/07 20:16:30;;;;;;;28.98;21.02;;;;;;;;;;5048862;28;20060;-62
2020/12/07 20:18:56;;;;;;;29.77;21.58;;;;;;;;;;5050350;28;20026;-62
2020/12/07 20:21:23;;;;;;;31.25;22.75;;;;;;;;;;5048923;28;20033;-61
2020/12/07 20:23:49;;;;;;;164.38;106.65;;;;;;;;;;5050370;28;20021;-62
2020/12/07 20:26:16;;;;;;;412.95;256.70;;;;;;;;;;5047180;28;20048;-61
2020/12/07 20:28:42;;;;;;;145.38;89.43;;;;;;;;;;5048536;28;20023;-61
2020/12/07 20:31:09;;;;;;;64.20;40.45;;;;;;;;;;5049663;28;20040;-60
2020/12/07 20:33:36;;;;;;;38.38;25.42;;;;;;;;;;5050813;28;20029;-62
2020/12/07 20:36:02;;;;;;;137.73;79.93;;;;;;;;;;5050252;28;20543;-61
2020/12/07 20:38:28;;;;;;;289.33;165.18;;;;;;;;;;5049882;28;20028;-61
2020/12/07 20:40:54;;;;;;;111.60;67.95;;;;;;;;;;5049164;28;20098;-61
2020/12/07 20:43:20;;;;;;;90.22;65.32;;;;;;;;;;5050108;28;20100;-62
2020/12/07 20:45:47;;;;;;;81.30;59.22;;;;;;;;;;5050142;28;20040;-61
2020/12/07 20:48:13;;;;;;;63.63;46.13;;;;;;;;;;5050102;28;20075;-61
2020/12/07 20:50:42;;;;;;;58.40;44.22;;;;;;;;;;5049985;28;20028;-64
2020/12/07 20:53:09;;;;;;;32.03;21.02;;;;;;;;;;5049699;28;20021;-62
2020/12/07 20:55:35;;;;;;;26.73;19.33;;;;;;;;;;5049670;28;20021;-63
2020/12/07 20:58:02;;;;;;;26.75;18.85;;;;;;;;;;5042681;28;20029;-60
2020/12/07 21:00:28;;;;;;;25.27;18.23;;;;;;;;;;5050834;28;20017;-61
2020/12/07 21:02:54;;;;;;;26.00;19.75;;;;;;;;;;5049468;28;20083;-60
2020/12/07 21:05:20;;;;;;;49.25;33.20;;;;;;;;;;5049829;28;20170;-61
2020/12/07 21:07:46;;;;;;;39.33;26.88;;;;;;;;;;5049618;28;20035;-61
2020/12/07 21:10:12;;;;;;;67.20;47.88;;;;;;;;;;5049382;28;20477;-62
2020/12/07 21:12:39;;;;;;;52.95;39.50;;;;;;;;;;5050304;28;20115;-53
2020/12/07 21:15:05;;;;;;;41.25;27.67;;;;;;;;;;5049313;28;20025;-54
2020/12/07 21:17:31;;;;;;;43.38;26.88;;;;;;;;;;5048925;28;20452;-52
2020/12/07 21:19:58;;;;;;;37.35;25.55;;;;;;;;;;5049695;28;20025;-52
2020/12/07 21:22:24;;;;;;;58.85;41.40;;;;;;;;;;5049103;28;20041;-51
2020/12/07 21:24:50;;;;;;;49.80;36.15;;;;;;;;;;5048962;28;20060;-56
2020/12/07 21:27:17;;;;;;;26.95;17.35;;;;;;;;;;5050545;28;20112;-56
2020/12/07 21:29:43;;;;;;;24.35;16.73;;;;;;;;;;5049195;28;20603;-53
